Time;durP1;ratioP1;P1;durP2;ratioP2;P2;SDS_P1;SDS_P2;PMS_P1;PMS_P2;Temp;Humidity;BMP_temperature;BMP_pressure;BME280_temperature;BME280_humidity;BME280_pressure;Samples;Min_cycle;Max_cycle;Signal;HPM_P1;HPM_P2
2022/09/11 00:01:43;;;;;;;18.20;2.53;;;;;;;;;;5044666;28;20487;-67
2022/09/11 00:04:09;;;;;;;23.60;2.35;;;;;;;;;;5045338;28;20088;-68
2022/09/11 00:06:36;;;;;;;6.82;1.27;;;;;;;;;;5044430;28;20052;-67
2022/09/11 00:09:04;;;;;;;14.57;1.48;;;;;;;;;;5030300;28;20110;-67
2022/09/11 00:11:32;;;;;;;27.30;3.78;;;;;;;;;;5048548;28;20033;-68
2022/09/11 00:13:59;;;;;;;12.65;1.77;;;;;;;;;;5031324;28;20454;-69
2022/09/11 00:16:27;;;;;;;5.57;0.77;;;;;;;;;;5047227;28;20065;-68
2022/09/11 00:18:55;;;;;;;26.75;2.95;;;;;;;;;;5049919;28;20144;-68
2022/09/11 00:21:22;;;;;;;7.95;0.90;;;;;;;;;;5051597;28;20037;-67
2022/09/11 00:23:48;;;;;;;19.50;2.60;;;;;;;;;;5048527;28;20506;-68
2022/09/11 00:26:16;;;;;;;18.60;1.85;;;;;;;;;;5047392;28;20505;-67
2022/09/11 00:28:44;;;;;;;11.00;1.75;;;;;;;;;;5047814;28;20120;-67
2022/09/11 00:31:16;;;;;;;16.88;2.40;;;;;;;;;;5048775;28;20037;-68
2022/09/11 00:33:43;;;;;;;29.85;3.22;;;;;;;;;;5047496;28;20132;-68
2022/09/11 00:36:11;;;;;;;10.25;1.20;;;;;;;;;;5048842;28;20521;-69
2022/09/11 00:38:38;;;;;;;144.88;45.05;;;;;;;;;;5048178;28;20059;-66
2022/09/11 00:41:06;;;;;;;138.93;40.50;;;;;;;;;;5047754;28;20753;-66
2022/09/11 00:43:52;;;;;;;119.03;37.70;;;;;;;;;;5046794;28;20037;-67
2022/09/11 00:46:19;;;;;;;133.05;38.20;;;;;;;;;;5046789;28;20055;-67
2022/09/11 00:48:48;;;;;;;139.45;40.50;;;;;;;;;;5051991;28;20040;-68
2022/09/11 00:51:24;;;;;;;137.00;39.60;;;;;;;;;;5051880;28;20045;-67
2022/09/11 00:53:53;;;;;;;123.07;37.17;;;;;;;;;;5046425;28;20075;-69
2022/09/11 00:56:20;;;;;;;151.55;39.97;;;;;;;;;;5046302;28;20491;-69
2022/09/11 00:58:47;;;;;;;150.18;38.00;;;;;;;;;;5046483;28;20041;-69
2022/09/11 01:01:14;;;;;;;127.82;33.78;;;;;;;;;;5030151;28;20399;-70
2022/09/11 01:03:41;;;;;;;138.68;30.30;;;;;;;;;;5050957;28;20072;-67
2022/09/11 01:06:09;;;;;;;139.23;29.08;;;;;;;;;;5034288;28;20052;-67
2022/09/11 01:08:35;;;;;;;142.68;25.30;;;;;;;;;;5046398;28;20052;-66
2022/09/11 01:11:12;;;;;;;35.20;5.00;;;;;;;;;;5046158;28;20521;-67
2022/09/11 01:13:42;;;;;;;29.17;2.85;;;;;;;;;;5045740;28;20029;-68
2022/09/11 01:16:30;;;;;;;10.63;1.38;;;;;;;;;;5047061;28;20146;-68
2022/09/11 01:19:07;;;;;;;21.75;2.47;;;;;;;;;;5047713;28;20083;-67
2022/09/11 01:21:51;;;;;;;11.57;1.98;;;;;;;;;;5050287;28;20163;-67
2022/09/11 01:24:23;;;;;;;6.82;0.75;;;;;;;;;;5049297;28;20045;-67
2022/09/11 01:27:05;;;;;;;16.47;1.73;;;;;;;;;;5045558;28;20046;-67
2022/09/11 01:29:44;;;;;;;21.23;4.00;;;;;;;;;;5045756;28;20458;-67
2022/09/11 01:32:20;;;;;;;18.58;1.98;;;;;;;;;;5046140;28;20469;-66
2022/09/11 01:34:47;;;;;;;8.30;0.88;;;;;;;;;;5049521;28;20053;-66
2022/09/11 01:37:17;;;;;;;12.38;2.47;;;;;;;;;;5045647;28;20133;-66
2022/09/11 01:39:48;;;;;;;41.45;5.13;;;;;;;;;;5049716;28;20045;-66
2022/09/11 01:42:17;;;;;;;5.05;0.93;;;;;;;;;;5050695;28;20491;-66
2022/09/11 01:44:47;;;;;;;8.43;1.05;;;;;;;;;;5033611;28;20045;-66
2022/09/11 01:47:15;;;;;;;19.70;2.08;;;;;;;;;;5045521;28;20136;-66
2022/09/11 01:49:50;;;;;;;15.40;2.30;;;;;;;;;;5045591;28;20045;-66
2022/09/11 01:52:23;;;;;;;29.38;4.32;;;;;;;;;;5029557;28;20495;-66
2022/09/11 01:54:53;;;;;;;23.33;2.30;;;;;;;;;;5049001;28;20072;-66
2022/09/11 01:57:24;;;;;;;5.57;1.10;;;;;;;;;;5033076;28;20091;-64
2022/09/11 01:59:55;;;;;;;20.25;2.13;;;;;;;;;;5045228;28;20068;-62
2022/09/11 02:02:26;;;;;;;5.95;0.95;;;;;;;;;;5032872;28;20137;-65
2022/09/11 02:05:04;;;;;;;21.95;2.83;;;;;;;;;;5045114;28;20517;-65
2022/09/11 02:07:41;;;;;;;6.38;0.68;;;;;;;;;;5046811;28;20037;-67
2022/09/11 02:10:10;;;;;;;18.02;2.00;;;;;;;;;;5046441;28;20135;-66
2022/09/11 02:12:41;;;;;;;11.48;1.20;;;;;;;;;;5049955;28;20079;-65
2022/09/11 02:15:10;;;;;;;9.82;1.45;;;;;;;;;;5029218;28;20045;-65
2022/09/11 02:17:47;;;;;;;21.15;2.42;;;;;;;;;;5044798;28;20129;-70
2022/09/11 02:20:14;;;;;;;13.00;2.65;;;;;;;;;;5045015;28;20041;-70
2022/09/11 02:22:42;;;;;;;9.13;1.00;;;;;;;;;;5045434;28;20033;-70
2022/09/11 02:25:08;;;;;;;26.17;2.60;;;;;;;;;;5028896;28;20457;-70
2022/09/11 02:27:37;;;;;;;13.75;1.98;;;;;;;;;;5050145;28;20037;-70
2022/09/11 02:30:05;;;;;;;20.58;2.13;;;;;;;;;;5044685;28;20045;-70
2022/09/11 02:32:35;;;;;;;15.68;1.63;;;;;;;;;;5044119;28;20057;-69
2022/09/11 02:35:02;;;;;;;12.23;1.75;;;;;;;;;;5044808;28;20072;-69
2022/09/11 02:37:50;;;;;;;12.73;1.52;;;;;;;;;;5044683;28;20033;-69
2022/09/11 02:40:37;;;;;;;11.43;1.25;;;;;;;;;;5044773;28;20049;-70
2022/09/11 02:43:23;;;;;;;24.50;2.58;;;;;;;;;;5045694;28;20052;-66
2022/09/11 02:46:06;;;;;;;24.02;3.08;;;;;;;;;;5028870;28;20045;-66
2022/09/11 02:48:52;;;;;;;7.07;1.33;;;;;;;;;;5049634;28;20052;-66
2022/09/11 02:51:22;;;;;;;29.30;3.17;;;;;;;;;;5046177;28;20052;-66
2022/09/11 02:54:09;;;;;;;21.55;2.75;;;;;;;;;;5044160;28;20095;-66
2022/09/11 02:56:36;;;;;;;23.90;2.30;;;;;;;;;;5028743;28;20053;-65
2022/09/11 02:59:05;;;;;;;18.27;2.15;;;;;;;;;;5045773;28;20099;-65
2022/09/11 03:01:49;;;;;;;10.23;1.13;;;;;;;;;;5044407;28;20431;-66
2022/09/11 03:04:17;;;;;;;7.67;1.23;;;;;;;;;;5048658;28;20045;-65
2022/09/11 03:06:47;;;;;;;26.15;2.60;;;;;;;;;;5032603;28;20048;-66
2022/09/11 03:09:14;;;;;;;24.20;2.60;;;;;;;;;;5048393;28;20107;-66
2022/09/11 03:11:42;;;;;;;15.00;1.63;;;;;;;;;;5047793;28;20376;-70
2022/09/11 03:14:09;;;;;;;18.63;1.90;;;;;;;;;;5044127;28;20506;-69
2022/09/11 03:16:37;;;;;;;16.23;1.88;;;;;;;;;;5044547;28;20045;-69
2022/09/11 03:19:04;;;;;;;21.58;2.80;;;;;;;;;;5045667;28;20044;-68
2022/09/11 03:21:31;;;;;;;21.00;2.92;;;;;;;;;;5047386;28;20041;-68
2022/09/11 03:23:58;;;;;;;20.65;2.13;;;;;;;;;;5044203;28;20041;-68
2022/09/11 03:26:24;;;;;;;3.30;1.00;;;;;;;;;;5044361;28;20044;-69
2022/09/11 03:28:52;;;;;;;10.55;1.20;;;;;;;;;;5043636;28;20045;-68
2022/09/11 03:31:19;;;;;;;25.25;2.58;;;;;;;;;;5044122;28;20539;-68
2022/09/11 03:33:46;;;;;;;16.00;1.65;;;;;;;;;;5049464;28;20041;-68
2022/09/11 03:36:13;;;;;;;23.02;2.92;;;;;;;;;;5048202;28;20154;-67
2022/09/11 03:38:40;;;;;;;25.77;2.72;;;;;;;;;;5044145;28;20076;-68
2022/09/11 03:41:08;;;;;;;8.05;0.90;;;;;;;;;;5044084;28;20037;-68
2022/09/11 03:43:35;;;;;;;10.63;1.15;;;;;;;;;;5045925;28;20048;-69
2022/09/11 03:46:01;;;;;;;32.67;3.28;;;;;;;;;;5049836;28;20103;-68
2022/09/11 03:48:29;;;;;;;6.57;1.67;;;;;;;;;;5051247;28;20056;-69
2022/09/11 03:50:57;;;;;;;7.90;1.05;;;;;;;;;;5047746;28;20045;-69
2022/09/11 03:53:25;;;;;;;18.23;1.95;;;;;;;;;;5049308;28;20037;-69
2022/09/11 03:55:53;;;;;;;16.55;2.63;;;;;;;;;;5049066;28;20029;-69
2022/09/11 03:58:20;;;;;;;12.80;1.48;;;;;;;;;;5047461;28;20053;-66
2022/09/11 04:00:46;;;;;;;20.90;2.67;;;;;;;;;;5052044;28;20139;-65
2022/09/11 04:03:14;;;;;;;12.85;2.13;;;;;;;;;;5048520;28;20506;-67
2022/09/11 04:05:43;;;;;;;26.02;3.75;;;;;;;;;;5046949;28;20124;-66
2022/09/11 04:08:10;;;;;;;24.67;2.50;;;;;;;;;;5047608;28;20045;-66
2022/09/11 04:10:38;;;;;;;7.72;1.20;;;;;;;;;;5047690;28;20099;-67
2022/09/11 04:13:07;;;;;;;17.33;1.75;;;;;;;;;;5048400;28;20049;-68
2022/09/11 04:15:34;;;;;;;15.38;1.52;;;;;;;;;;5050920;28;20049;-69
2022/09/11 04:18:04;;;;;;;17.50;1.83;;;;;;;;;;5047347;28;20036;-68
2022/09/11 04:20:32;;;;;;;118.53;43.17;;;;;;;;;;5048903;28;20128;-68
2022/09/11 04:22:59;;;;;;;146.30;46.75;;;;;;;;;;5047330;28;20037;-68
2022/09/11 04:25:25;;;;;;;134.40;36.90;;;;;;;;;;5047355;28;20046;-69
2022/09/11 04:27:52;;;;;;;143.70;34.17;;;;;;;;;;5050305;28;20037;-69
2022/09/11 04:30:21;;;;;;;156.68;32.42;;;;;;;;;;5048348;28;20417;-69
2022/09/11 04:32:49;;;;;;;140.07;27.85;;;;;;;;;;5046993;28;20043;-70
2022/09/11 04:35:15;;;;;;;45.88;5.88;;;;;;;;;;5046697;28;20098;-68
2022/09/11 04:37:49;;;;;;;9.23;2.05;;;;;;;;;;5046937;28;20503;-68
2022/09/11 04:40:15;;;;;;;18.40;1.88;;;;;;;;;;5047227;28;20045;-68
2022/09/11 04:42:43;;;;;;;18.83;2.20;;;;;;;;;;5047519;28;20063;-68
2022/09/11 04:45:10;;;;;;;14.48;2.63;;;;;;;;;;5048326;28;20102;-68
2022/09/11 04:47:36;;;;;;;23.40;2.78;;;;;;;;;;5048054;28;20104;-65
2022/09/11 04:50:03;;;;;;;19.83;2.28;;;;;;;;;;5046412;28;20577;-66
2022/09/11 04:52:30;;;;;;;8.65;1.75;;;;;;;;;;5047676;28;20041;-70
2022/09/11 04:54:57;;;;;;;15.85;2.70;;;;;;;;;;5049715;28;20144;-71
2022/09/11 04:57:24;;;;;;;14.23;4.13;;;;;;;;;;5051977;28;20041;-71
2022/09/11 04:59:51;;;;;;;19.42;1.92;;;;;;;;;;5046016;28;20053;-70
2022/09/11 05:02:18;;;;;;;16.83;1.73;;;;;;;;;;5046394;28;20044;-69
2022/09/11 05:04:48;;;;;;;13.40;1.40;;;;;;;;;;5046318;28;20041;-69
2022/09/11 05:07:15;;;;;;;17.50;1.75;;;;;;;;;;5050619;28;20148;-68
2022/09/11 05:09:46;;;;;;;25.30;2.53;;;;;;;;;;5050975;28;20102;-69
2022/09/11 05:12:13;;;;;;;27.38;3.72;;;;;;;;;;5046586;28;20122;-69
2022/09/11 05:14:40;;;;;;;12.20;2.15;;;;;;;;;;5046169;28;20044;-68
2022/09/11 05:17:07;;;;;;;20.63;2.08;;;;;;;;;;5028372;28;20045;-67
2022/09/11 05:19:39;;;;;;;36.03;4.25;;;;;;;;;;5045715;28;20138;-68
2022/09/11 05:22:06;;;;;;;18.60;1.83;;;;;;;;;;5049241;28;20049;-68
2022/09/11 05:24:34;;;;;;;9.98;1.25;;;;;;;;;;5049685;28;20083;-66
2022/09/11 05:27:00;;;;;;;44.45;6.00;;;;;;;;;;5049675;28;20531;-66
2022/09/11 05:29:28;;;;;;;11.50;1.77;;;;;;;;;;5046156;28;20132;-67
2022/09/11 05:32:07;;;;;;;20.30;2.20;;;;;;;;;;5045717;28;20048;-67
2022/09/11 05:34:33;;;;;;;11.43;1.88;;;;;;;;;;5045915;28;20534;-66
2022/09/11 05:37:01;;;;;;;11.48;1.52;;;;;;;;;;5046507;28;20519;-66
2022/09/11 05:39:31;;;;;;;21.20;2.42;;;;;;;;;;5048724;28;20057;-67
2022/09/11 05:41:59;;;;;;;24.00;2.92;;;;;;;;;;5045603;28;20048;-67
2022/09/11 05:44:30;;;;;;;5.00;0.57;;;;;;;;;;5046180;28;20048;-63
2022/09/11 05:46:57;;;;;;;18.30;2.92;;;;;;;;;;5045354;28;20399;-65
2022/09/11 05:49:24;;;;;;;12.00;1.63;;;;;;;;;;5045755;28;20580;-66
2022/09/11 05:51:51;;;;;;;12.98;1.45;;;;;;;;;;5050830;28;20652;-69
2022/09/11 05:54:17;;;;;;;20.75;2.55;;;;;;;;;;5046418;28;20049;-67
2022/09/11 05:56:44;;;;;;;8.65;0.95;;;;;;;;;;5045494;28;20033;-66
2022/09/11 05:59:19;;;;;;;67.57;23.60;;;;;;;;;;5045183;28;20083;-69
2022/09/11 06:01:47;;;;;;;138.43;47.25;;;;;;;;;;5044854;28;20083;-71
2022/09/11 06:04:20;;;;;;;127.25;46.33;;;;;;;;;;5046167;28;20068;-69
2022/09/11 06:06:49;;;;;;;126.93;42.95;;;;;;;;;;5049567;28;20041;-69
2022/09/11 06:09:17;;;;;;;129.35;35.25;;;;;;;;;;5046330;28;20052;-64
2022/09/11 06:11:43;;;;;;;142.90;33.35;;;;;;;;;;5044780;28;20048;-69
2022/09/11 06:14:12;;;;;;;164.88;32.63;;;;;;;;;;5044749;28;20041;-70
2022/09/11 06:16:39;;;;;;;17.33;3.50;;;;;;;;;;5045055;28;20044;-67
2022/09/11 06:19:10;;;;;;;20.58;2.50;;;;;;;;;;5046379;28;20052;-67
2022/09/11 06:21:37;;;;;;;19.30;2.08;;;;;;;;;;5048624;28;20067;-66
2022/09/11 06:24:09;;;;;;;12.10;1.30;;;;;;;;;;5045047;28;20056;-66
2022/09/11 06:26:37;;;;;;;13.20;1.75;;;;;;;;;;5044917;28;20054;-67
2022/09/11 06:29:03;;;;;;;23.88;3.63;;;;;;;;;;5044650;28;20041;-67
2022/09/11 06:31:34;;;;;;;13.32;2.45;;;;;;;;;;5045072;28;20403;-67
2022/09/11 06:34:00;;;;;;;21.17;3.95;;;;;;;;;;5048646;28;20115;-66
2022/09/11 06:36:30;;;;;;;22.45;2.55;;;;;;;;;;5048583;28;20039;-68
2022/09/11 06:38:59;;;;;;;11.50;2.78;;;;;;;;;;5046166;28;20052;-67
2022/09/11 06:41:27;;;;;;;13.52;3.20;;;;;;;;;;5046144;28;20036;-67
2022/09/11 06:44:05;;;;;;;9.57;1.25;;;;;;;;;;5044313;28;20040;-67
2022/09/11 06:46:33;;;;;;;8.40;1.55;;;;;;;;;;5028236;28;20037;-67
2022/09/11 06:49:00;;;;;;;28.85;4.13;;;;;;;;;;5046934;28;20438;-67
2022/09/11 06:51:27;;;;;;;9.93;1.30;;;;;;;;;;5047114;28;20041;-67
2022/09/11 06:53:56;;;;;;;4.95;0.90;;;;;;;;;;5044592;28;20132;-66
2022/09/11 06:56:26;;;;;;;19.67;2.17;;;;;;;;;;5044340;28;20077;-66
2022/09/11 06:58:54;;;;;;;6.43;0.73;;;;;;;;;;5043886;28;20075;-66
2022/09/11 07:01:23;;;;;;;19.92;2.75;;;;;;;;;;5047204;28;20045;-66
2022/09/11 07:04:01;;;;;;;20.50;2.65;;;;;;;;;;5047294;28;20095;-66
2022/09/11 07:06:30;;;;;;;17.33;2.15;;;;;;;;;;5046952;28;20037;-67
2022/09/11 07:09:01;;;;;;;16.40;2.85;;;;;;;;;;5047187;28;20053;-65
2022/09/11 07:11:49;;;;;;;27.88;3.28;;;;;;;;;;5046624;28;20106;-66
2022/09/11 07:14:20;;;;;;;18.63;2.35;;;;;;;;;;5043991;28;20051;-67
2022/09/11 07:16:53;;;;;;;8.88;2.08;;;;;;;;;;5044375;28;20403;-67
2022/09/11 07:19:23;;;;;;;19.70;2.17;;;;;;;;;;5044057;28;20053;-66
2022/09/11 07:21:50;;;;;;;18.65;3.60;;;;;;;;;;5062228;28;20096;-66
2022/09/11 07:24:17;;;;;;;14.25;1.60;;;;;;;;;;5044929;28;20052;-66
2022/09/11 07:26:44;;;;;;;20.60;2.38;;;;;;;;;;5043964;28;20049;-67
2022/09/11 07:29:21;;;;;;;26.80;2.88;;;;;;;;;;5040890;28;20129;-67
2022/09/11 07:31:47;;;;;;;28.67;3.00;;;;;;;;;;5051018;28;20511;-67
2022/09/11 07:34:14;;;;;;;34.78;4.18;;;;;;;;;;5042493;28;20076;-70
2022/09/11 07:36:43;;;;;;;12.55;1.67;;;;;;;;;;5055528;28;20144;-68
2022/09/11 07:39:10;;;;;;;136.65;40.60;;;;;;;;;;5047954;28;20067;-67
2022/09/11 07:41:48;;;;;;;167.20;40.22;;;;;;;;;;5047899;28;20136;-70
2022/09/11 07:44:22;;;;;;;;;;;;;;;;;;5045634;28;20049;-71
2022/09/11 07:46:50;;;;;;;25.80;3.10;;;;;;;;;;5044047;28;20283;-72
2022/09/11 07:49:16;;;;;;;7.95;1.17;;;;;;;;;;5046610;28;20050;-70
2022/09/11 07:51:43;;;;;;;19.95;2.67;;;;;;;;;;5049729;28;20069;-70
2022/09/11 07:54:13;;;;;;;20.48;3.08;;;;;;;;;;5044199;28;20049;-71
2022/09/11 07:56:40;;;;;;;31.83;3.35;;;;;;;;;;5043888;28;20047;-70
2022/09/11 07:59:09;;;;;;;17.08;2.20;;;;;;;;;;5044012;28;20124;-70
2022/09/11 08:01:43;;;;;;;25.65;3.13;;;;;;;;;;5043931;28;20045;-67
2022/09/11 08:04:11;;;;;;;17.38;2.55;;;;;;;;;;5045627;28;21051;-69
2022/09/11 08:06:38;;;;;;;5.95;1.20;;;;;;;;;;5047500;28;20140;-69
2022/09/11 08:09:11;;;;;;;32.38;3.33;;;;;;;;;;5048077;28;20047;-70
2022/09/11 08:11:45;;;;;;;13.80;1.92;;;;;;;;;;5048350;28;20076;-68
2022/09/11 08:14:14;;;;;;;23.20;2.67;;;;;;;;;;5044009;28;20047;-68
2022/09/11 08:16:41;;;;;;;18.85;2.10;;;;;;;;;;5043793;28;20103;-69
2022/09/11 08:19:13;;;;;;;15.85;1.90;;;;;;;;;;5047240;28;20449;-69
2022/09/11 08:21:40;;;;;;;30.98;3.35;;;;;;;;;;5047093;28;20498;-69
2022/09/11 08:24:08;;;;;;;5.70;0.82;;;;;;;;;;5043886;28;20045;-69
2022/09/11 08:26:35;;;;;;;5.15;0.82;;;;;;;;;;5043676;28;20447;-69
2022/09/11 08:29:01;;;;;;;28.15;3.40;;;;;;;;;;5043716;28;20091;-69
2022/09/11 08:31:31;;;;;;;8.65;1.15;;;;;;;;;;5047420;28;20084;-68
2022/09/11 08:33:59;;;;;;;101.30;42.55;;;;;;;;;;5050702;28;20048;-68
2022/09/11 08:36:26;;;;;;;103.93;39.22;;;;;;;;;;5048453;28;20033;-68
2022/09/11 08:38:54;;;;;;;95.63;41.53;;;;;;;;;;5047263;28;20048;-69
2022/09/11 08:41:40;;;;;;;113.43;44.20;;;;;;;;;;5047329;28;20052;-69
2022/09/11 08:44:07;;;;;;;110.80;34.00;;;;;;;;;;5045917;28;20099;-69
2022/09/11 08:46:40;;;;;;;112.30;34.80;;;;;;;;;;5047221;28;20506;-68
2022/09/11 08:49:07;;;;;;;134.40;36.55;;;;;;;;;;5048993;28;20400;-68
2022/09/11 08:51:34;;;;;;;98.60;30.45;;;;;;;;;;5049595;28;20041;-69
2022/09/11 08:54:02;;;;;;;114.88;31.92;;;;;;;;;;5046934;28;20040;-68
2022/09/11 08:56:35;;;;;;;111.57;33.00;;;;;;;;;;5046705;28;20080;-68
2022/09/11 08:59:10;;;;;;;148.35;38.75;;;;;;;;;;5045563;28;20045;-67
2022/09/11 09:01:55;;;;;;;21.20;2.83;;;;;;;;;;5047004;28;20397;-67
2022/09/11 09:04:40;;;;;;;8.73;2.47;;;;;;;;;;5046951;28;20055;-68
2022/09/11 09:07:13;;;;;;;18.83;2.33;;;;;;;;;;5048443;28;20094;-68
2022/09/11 09:10:00;;;;;;;11.52;1.55;;;;;;;;;;5050001;28;20140;-67
2022/09/11 09:12:32;;;;;;;7.50;3.08;;;;;;;;;;5048320;28;20083;-67
2022/09/11 09:15:23;;;;;;;21.63;5.55;;;;;;;;;;5048332;28;20049;-67
2022/09/11 09:18:02;;;;;;;4.15;0.98;;;;;;;;;;5042633;28;20048;-68
2022/09/11 09:20:31;;;;;;;15.13;2.30;;;;;;;;;;5045697;28;20049;-68
2022/09/11 09:23:04;;;;;;;6.20;0.80;;;;;;;;;;5046957;28;20073;-68
2022/09/11 09:25:37;;;;;;;8.82;1.42;;;;;;;;;;5046698;28;20069;-67
2022/09/11 09:28:13;;;;;;;12.70;1.63;;;;;;;;;;5049030;28;20048;-68
2022/09/11 09:30:50;;;;;;;8.77;1.17;;;;;;;;;;5049588;28;20037;-67
2022/09/11 09:33:26;;;;;;;30.50;3.15;;;;;;;;;;5046663;28;20044;-68
2022/09/11 09:35:56;;;;;;;7.53;1.27;;;;;;;;;;5071377;28;20103;-69
2022/09/11 09:38:28;;;;;;;33.38;3.80;;;;;;;;;;5046131;28;20071;-67
2022/09/11 09:41:13;;;;;;;8.10;1.85;;;;;;;;;;5045433;28;20136;-68
2022/09/11 09:43:43;;;;;;;30.45;3.17;;;;;;;;;;5045863;28;20045;-69
2022/09/11 09:46:18;;;;;;;15.80;2.13;;;;;;;;;;5049393;28;20041;-67
2022/09/11 09:48:44;;;;;;;30.17;5.88;;;;;;;;;;5050991;28;20576;-67
2022/09/11 09:51:12;;;;;;;13.00;1.55;;;;;;;;;;5046783;28;20113;-67
2022/09/11 09:53:52;;;;;;;19.90;2.08;;;;;;;;;;5046512;28;20044;-71
2022/09/11 09:56:20;;;;;;;33.95;5.00;;;;;;;;;;5046563;28;20051;-68
2022/09/11 09:58:54;;;;;;;23.42;2.53;;;;;;;;;;5046124;28;20463;-68
2022/09/11 10:01:42;;;;;;;19.02;2.10;;;;;;;;;;5045412;28;20039;-68
2022/09/11 10:04:10;;;;;;;21.90;2.25;;;;;;;;;;5046248;28;20099;-69
2022/09/11 10:06:36;;;;;;;9.73;1.40;;;;;;;;;;5049620;28;20068;-68
2022/09/11 10:09:03;;;;;;;12.80;1.67;;;;;;;;;;5046535;28;20037;-69
2022/09/11 10:11:29;;;;;;;20.17;2.20;;;;;;;;;;5045415;28;20060;-69
2022/09/11 10:13:56;;;;;;;8.70;0.95;;;;;;;;;;5046824;28;20041;-68
2022/09/11 10:16:26;;;;;;;30.38;3.65;;;;;;;;;;5046683;28;20042;-69
2022/09/11 10:18:54;;;;;;;9.27;1.10;;;;;;;;;;5045596;28;20044;-68
2022/09/11 10:21:21;;;;;;;20.77;2.17;;;;;;;;;;5045031;28;20045;-69
2022/09/11 10:23:51;;;;;;;34.50;4.05;;;;;;;;;;5044039;28;20051;-69
2022/09/11 10:26:17;;;;;;;7.22;1.30;;;;;;;;;;5046593;28;20110;-69
2022/09/11 10:28:45;;;;;;;9.82;1.40;;;;;;;;;;5046401;28;20037;-69
2022/09/11 10:31:15;;;;;;;16.50;3.75;;;;;;;;;;5048193;28;20037;-68
2022/09/11 10:33:55;;;;;;;18.92;3.67;;;;;;;;;;5049644;28;20048;-69
2022/09/11 10:36:23;;;;;;;37.55;3.90;;;;;;;;;;5046218;28;20500;-70
2022/09/11 10:38:50;;;;;;;6.72;0.90;;;;;;;;;;5050303;28;20045;-68
2022/09/11 10:41:21;;;;;;;7.93;0.98;;;;;;;;;;5046169;28;20048;-66
2022/09/11 10:43:54;;;;;;;16.88;2.03;;;;;;;;;;5039750;28;20087;-66
2022/09/11 10:46:21;;;;;;;;;;;;;;;;;;5046877;28;20034;-67
2022/09/11 10:48:54;;;;;;;25.50;4.85;;;;;;;;;;5050302;28;19925;-66
2022/09/11 10:51:21;;;;;;;40.80;5.38;;;;;;;;;;5038214;28;20041;-64
2022/09/11 10:53:53;;;;;;;43.97;5.35;;;;;;;;;;5039267;28;20061;-75
2022/09/11 10:56:20;;;;;;;65.23;6.60;;;;;;;;;;5036821;28;20472;-68
2022/09/11 10:58:49;;;;;;;62.60;7.18;;;;;;;;;;5036217;28;20300;-67
2022/09/11 11:01:20;;;;;;;81.20;9.02;;;;;;;;;;5034516;28;20052;-71
2022/09/11 11:03:47;;;;;;;85.93;9.10;;;;;;;;;;5035696;28;20060;-61
2022/09/11 11:06:33;;;;;;;26.70;2.80;;;;;;;;;;5038530;28;20044;-62
2022/09/11 11:09:18;;;;;;;67.93;7.05;;;;;;;;;;5035863;28;20411;-61
2022/09/11 11:11:57;;;;;;;30.90;3.97;;;;;;;;;;5035302;28;20049;-65
2022/09/11 11:14:36;;;;;;;8.43;1.33;;;;;;;;;;5049157;28;20124;-68
2022/09/11 11:17:06;;;;;;;17.90;2.20;;;;;;;;;;5049111;28;20055;-68
2022/09/11 11:19:51;;;;;;;13.05;1.77;;;;;;;;;;5047870;28;20037;-72
2022/09/11 15:06:36;;;;;;;25.55;2.70;;;;;;;;;;5055388;28;20448;-72
2022/09/11 15:09:03;;;;;;;67.20;7.28;;;;;;;;;;5052024;28;20037;-68
2022/09/11 15:11:32;;;;;;;18.30;3.17;;;;;;;;;;5048834;28;20056;-68
2022/09/11 15:14:07;;;;;;;31.60;4.05;;;;;;;;;;5051712;28;20516;-68
2022/09/11 15:16:56;;;;;;;6.93;2.10;;;;;;;;;;5054128;28;20048;-67
2022/09/11 15:19:23;;;;;;;10.93;1.17;;;;;;;;;;5052502;28;20049;-69
2022/09/11 15:21:50;;;;;;;10.82;1.20;;;;;;;;;;5056728;28;20033;-68
2022/09/11 15:24:16;;;;;;;8.70;2.05;;;;;;;;;;5052163;28;20045;-70
2022/09/11 15:26:43;;;;;;;19.00;2.80;;;;;;;;;;5044852;28;20535;-68
2022/09/11 15:29:10;;;;;;;19.92;2.05;;;;;;;;;;5047813;28;20041;-65
2022/09/11 15:31:36;;;;;;;13.73;1.85;;;;;;;;;;5050372;28;20405;-70
2022/09/11 15:34:04;;;;;;;39.55;5.18;;;;;;;;;;5055640;28;20471;-70
2022/09/11 15:36:31;;;;;;;28.27;3.58;;;;;;;;;;5051935;28;20041;-71
2022/09/11 15:38:58;;;;;;;13.25;1.60;;;;;;;;;;5049333;28;20047;-69
2022/09/11 15:41:26;;;;;;;11.77;1.42;;;;;;;;;;5051300;28;20105;-69
2022/09/11 15:43:53;;;;;;;21.83;2.70;;;;;;;;;;5042566;28;20040;-69
2022/09/11 15:46:21;;;;;;;8.82;1.85;;;;;;;;;;5046009;28;20493;-68
2022/09/11 15:48:48;;;;;;;8.27;1.02;;;;;;;;;;5047547;28;20056;-70
2022/09/11 15:51:17;;;;;;;6.82;0.80;;;;;;;;;;5048089;28;20476;-71
2022/09/11 15:53:44;;;;;;;12.35;2.35;;;;;;;;;;5053466;28;20037;-70
2022/09/11 15:56:12;;;;;;;21.60;3.28;;;;;;;;;;5050157;28;20048;-71
2022/09/11 15:58:41;;;;;;;28.98;4.32;;;;;;;;;;5050357;28;20048;-67
2022/09/11 16:01:27;;;;;;;27.80;2.88;;;;;;;;;;5055077;28;20047;-70
2022/09/11 16:03:55;;;;;;;9.93;1.13;;;;;;;;;;5056224;28;20087;-68
2022/09/11 16:06:22;;;;;;;11.40;1.50;;;;;;;;;;5047826;28;20056;-68
2022/09/11 16:08:49;;;;;;;16.25;2.08;;;;;;;;;;5049237;28;20041;-68
2022/09/11 16:11:16;;;;;;;14.63;2.40;;;;;;;;;;5047736;28;20059;-70
2022/09/11 16:13:46;;;;;;;12.93;1.38;;;;;;;;;;5050106;28;20042;-69
2022/09/11 16:16:13;;;;;;;25.58;2.80;;;;;;;;;;5048749;28;20128;-68
2022/09/11 16:18:41;;;;;;;13.70;1.65;;;;;;;;;;5031019;28;20111;-68
2022/09/11 16:21:09;;;;;;;38.55;4.20;;;;;;;;;;5027660;28;20490;-70
2022/09/11 16:23:37;;;;;;;19.65;3.40;;;;;;;;;;5030829;28;20045;-71
2022/09/11 16:26:05;;;;;;;16.73;1.77;;;;;;;;;;5029950;28;20045;-71
2022/09/11 16:28:32;;;;;;;35.03;5.25;;;;;;;;;;5029216;28;20036;-71
2022/09/11 16:30:59;;;;;;;19.70;1.98;;;;;;;;;;5029097;28;20049;-71
2022/09/11 16:33:25;;;;;;;10.40;1.63;;;;;;;;;;5030666;28;20115;-70
2022/09/11 16:35:56;;;;;;;23.48;2.75;;;;;;;;;;5027434;28;20045;-71
2022/09/11 16:38:22;;;;;;;17.90;2.03;;;;;;;;;;5028713;28;20045;-71
2022/09/11 16:40:49;;;;;;;24.05;2.45;;;;;;;;;;5039664;28;20034;-70
2022/09/11 16:43:15;;;;;;;44.55;4.88;;;;;;;;;;5030070;28;20041;-71
2022/09/11 16:45:51;;;;;;;13.93;2.53;;;;;;;;;;5034168;28;20052;-71
2022/09/11 16:48:18;;;;;;;17.33;2.47;;;;;;;;;;5030380;28;20044;-71
2022/09/11 16:50:52;;;;;;;26.92;3.03;;;;;;;;;;5026869;28;20049;-71
2022/09/11 16:53:19;;;;;;;18.48;2.00;;;;;;;;;;5027434;28;20045;-71
2022/09/11 16:55:45;;;;;;;17.17;2.55;;;;;;;;;;5027553;28;20060;-70
2022/09/11 16:58:13;;;;;;;38.30;4.63;;;;;;;;;;5030682;28;20107;-71
2022/09/11 17:00:40;;;;;;;14.05;1.88;;;;;;;;;;5029566;28;20049;-70
2022/09/11 17:03:07;;;;;;;19.77;2.60;;;;;;;;;;5037828;28;20660;-71
2022/09/11 17:05:33;;;;;;;33.45;5.13;;;;;;;;;;5035990;28;20056;-71
2022/09/11 17:08:00;;;;;;;26.77;2.72;;;;;;;;;;5037918;28;20037;-72
2022/09/11 17:10:26;;;;;;;14.82;2.15;;;;;;;;;;5036676;28;20076;-71
2022/09/11 17:12:54;;;;;;;26.58;3.40;;;;;;;;;;5039996;28;20507;-71
2022/09/11 17:15:21;;;;;;;14.30;2.60;;;;;;;;;;5034423;28;20056;-70
2022/09/11 17:17:47;;;;;;;13.57;1.65;;;;;;;;;;5034515;28;20496;-71
2022/09/11 17:20:15;;;;;;;31.10;3.08;;;;;;;;;;5034305;28;20045;-70
2022/09/11 17:22:41;;;;;;;31.30;3.17;;;;;;;;;;5037180;28;20039;-70
2022/09/11 17:25:08;;;;;;;26.48;2.72;;;;;;;;;;5031806;28;20048;-73
2022/09/11 17:27:35;;;;;;;39.90;3.90;;;;;;;;;;5030910;28;20083;-72
2022/09/11 17:30:03;;;;;;;15.20;1.63;;;;;;;;;;5030737;28;20041;-72
2022/09/11 17:32:29;;;;;;;34.20;3.55;;;;;;;;;;5027941;28;20072;-69
2022/09/11 17:34:57;;;;;;;43.90;4.43;;;;;;;;;;5024914;28;20112;-70
2022/09/11 17:37:25;;;;;;;29.85;3.08;;;;;;;;;;5034265;28;20546;-70
2022/09/11 17:39:51;;;;;;;9.90;1.10;;;;;;;;;;5030073;28;20042;-70
2022/09/11 17:42:18;;;;;;;29.55;3.22;;;;;;;;;;5024483;28;20446;-70
2022/09/11 17:44:45;;;;;;;24.45;3.25;;;;;;;;;;5032660;28;20037;-70
2022/09/11 17:47:11;;;;;;;33.80;5.47;;;;;;;;;;5035131;28;20060;-70
2022/09/11 17:49:38;;;;;;;34.88;3.35;;;;;;;;;;5024509;28;20050;-70
2022/09/11 17:52:04;;;;;;;22.40;3.42;;;;;;;;;;5028965;28;20057;-68
2022/09/11 17:54:31;;;;;;;34.58;3.42;;;;;;;;;;5025477;28;20045;-67
2022/09/11 17:56:57;;;;;;;59.85;5.82;;;;;;;;;;5023757;28;20091;-66
2022/09/11 17:59:24;;;;;;;13.05;1.38;;;;;;;;;;5021114;28;20503;-65
2022/09/11 18:01:51;;;;;;;8.82;1.67;;;;;;;;;;5030506;28;20064;-65
2022/09/11 18:04:17;;;;;;;50.40;4.85;;;;;;;;;;5029378;28;20056;-67
2022/09/11 18:06:44;;;;;;;24.30;2.63;;;;;;;;;;5033631;28;20079;-68
2022/09/11 18:09:15;;;;;;;36.03;3.58;;;;;;;;;;5024339;28;20033;-70
2022/09/11 18:11:42;;;;;;;36.13;3.65;;;;;;;;;;5033782;28;20109;-68
2022/09/11 18:14:09;;;;;;;24.55;4.10;;;;;;;;;;5027876;28;20061;-67
2022/09/11 18:16:36;;;;;;;26.20;2.58;;;;;;;;;;5024575;28;20037;-69
2022/09/11 18:19:03;;;;;;;28.70;3.10;;;;;;;;;;5030713;28;20049;-70
2022/09/11 18:21:32;;;;;;;15.23;1.92;;;;;;;;;;5026220;28;20145;-67
2022/09/11 18:24:02;;;;;;;38.50;3.97;;;;;;;;;;5027704;28;20417;-67
2022/09/11 18:26:31;;;;;;;38.45;4.15;;;;;;;;;;5027543;28;20045;-66
2022/09/11 18:28:59;;;;;;;7.72;1.02;;;;;;;;;;5028784;28;20048;-67
2022/09/11 18:31:28;;;;;;;24.45;2.55;;;;;;;;;;5030096;28;20041;-74